createdAt,value
2019-05-26T00:00:34.853Z,101016.83
2019-05-26T00:02:10.072Z,101014.41
2019-05-26T00:03:44.722Z,101014.89
2019-05-26T00:05:31.997Z,101014.89
2019-05-26T00:07:07.434Z,101014.13
2019-05-26T00:08:42.191Z,101019.50
2019-05-26T00:10:17.752Z,101014.17
2019-05-26T00:11:52.407Z,101013.13
2019-05-26T00:13:31.858Z,101005.15
2019-05-26T00:15:07.123Z,101009.90
2019-05-26T00:16:43.942Z,101002.45
2019-05-26T00:18:18.580Z,101001.68
2019-05-26T00:19:53.796Z,100999.59
2019-05-26T00:21:31.295Z,100990.23
2019-05-26T00:23:06.618Z,100997.33
2019-05-26T00:24:48.085Z,100998.70
2019-05-26T00:26:28.336Z,100993.37
2019-05-26T00:28:03.575Z,100986.49
2019-05-26T00:29:38.237Z,100989.06
2019-05-26T00:31:21.534Z,100989.06
2019-05-26T00:32:56.776Z,100985.92
2019-05-26T00:34:32.010Z,100985.97
2019-05-26T00:36:06.657Z,100992.33
2019-05-26T00:37:50.374Z,100990.11
2019-05-26T00:39:29.810Z,100977.94
2019-05-26T00:41:10.750Z,100977.45
2019-05-26T00:42:45.458Z,100977.94
2019-05-26T00:44:20.776Z,100979.23
2019-05-26T00:46:00.410Z,100980.05
2019-05-26T00:47:37.312Z,100982.84
2019-05-26T00:49:12.018Z,100985.03
2019-05-26T00:50:47.356Z,100976.86
2019-05-26T00:52:22.051Z,100975.72
2019-05-26T00:53:57.332Z,100977.62
2019-05-26T00:55:32.051Z,100981.80
2019-05-26T00:57:14.053Z,100972.02
2019-05-26T00:58:48.696Z,100973.59
2019-05-26T01:00:45.563Z,100962.75
2019-05-26T01:02:20.397Z,100964.12
2019-05-26T01:03:55.655Z,100964.20
2019-05-26T01:05:30.305Z,100960.05
2019-05-26T01:07:05.593Z,100954.17
2019-05-26T01:08:40.337Z,100955.55
2019-05-26T01:10:15.717Z,100954.17
2019-05-26T01:12:02.569Z,100958.96
2019-05-26T01:13:37.810Z,100950.18
2019-05-26T01:15:12.567Z,100957.22
2019-05-26T01:16:47.862Z,100953.04
2019-05-26T01:18:22.512Z,100960.12
2019-05-26T01:20:02.651Z,100953.52
2019-05-26T01:21:37.294Z,100958.59
2019-05-26T01:23:12.526Z,100952.03
2019-05-26T01:24:47.169Z,100953.19
2019-05-26T01:26:22.484Z,100950.77
2019-05-26T01:27:57.110Z,100947.88
2019-05-26T01:29:35.408Z,100940.83
2019-05-26T01:31:21.950Z,100941.68
2019-05-26T01:32:57.296Z,100938.17
2019-05-26T01:34:33.641Z,100944.50
2019-05-26T01:36:11.952Z,100937.41
2019-05-26T01:37:46.867Z,100936.84
2019-05-26T01:39:22.164Z,100938.37
2019-05-26T01:40:56.820Z,100930.92
2019-05-26T01:42:32.034Z,100934.99
2019-05-26T01:44:06.723Z,100934.59
2019-05-26T01:45:42.921Z,100929.02
2019-05-26T01:47:17.552Z,100929.88
2019-05-26T01:48:52.762Z,100933.34
2019-05-26T01:50:27.415Z,100933.18
2019-05-26T01:52:04.343Z,100932.16
2019-05-26T01:53:39.013Z,100931.97
2019-05-26T01:55:14.388Z,100934.10
2019-05-26T01:56:49.055Z,100938.77
2019-05-26T01:58:34.561Z,100931.91
2019-05-26T02:00:10.128Z,100927.36
2019-05-26T02:01:51.507Z,100917.92
2019-05-26T02:03:26.736Z,100922.86
2019-05-26T02:05:01.399Z,100921.53
2019-05-26T02:06:36.708Z,100926.42
2019-05-26T02:08:14.482Z,100926.04
2019-05-26T02:09:49.693Z,100925.75
2019-05-26T02:11:24.317Z,100922.19
2019-05-26T02:12:59.719Z,100926.13
2019-05-26T02:14:34.513Z,100923.90
2019-05-26T02:16:09.924Z,100923.98
2019-05-26T02:17:44.755Z,100919.36
2019-05-26T02:19:20.286Z,100925.69
2019-05-26T02:20:54.909Z,100918.55
2019-05-26T02:22:30.162Z,100915.78
2019-05-26T02:24:04.990Z,100910.67
2019-05-26T02:25:40.286Z,100909.66
2019-05-26T02:27:17.743Z,100911.47
2019-05-26T02:28:52.991Z,100910.95
2019-05-26T02:30:27.760Z,100906.68
2019-05-26T02:32:03.076Z,100909.14
2019-05-26T02:33:45.267Z,100907.36
2019-05-26T02:35:21.524Z,100909.13
2019-05-26T02:36:56.156Z,100909.70
2019-05-26T02:38:31.466Z,100910.02
2019-05-26T02:40:07.869Z,100907.28
2019-05-26T02:41:43.096Z,100910.30
2019-05-26T02:43:17.780Z,100905.19
2019-05-26T02:44:53.011Z,100902.20
2019-05-26T02:46:27.645Z,100906.72
2019-05-26T02:48:02.860Z,100907.28
2019-05-26T02:49:37.843Z,100896.73
2019-05-26T02:51:15.021Z,100901.84
2019-05-26T02:52:54.444Z,100896.66
2019-05-26T02:54:29.676Z,100901.36
2019-05-26T02:56:04.524Z,100904.38
2019-05-26T02:57:39.758Z,100894.91
2019-05-26T02:59:14.383Z,100901.28
2019-05-26T03:00:49.742Z,100895.67
2019-05-26T03:02:24.815Z,100897.21
2019-05-26T03:04:00.099Z,100893.83
2019-05-26T03:05:34.823Z,100892.45
2019-05-26T03:07:10.829Z,100890.56
2019-05-26T03:08:46.395Z,100892.42
2019-05-26T03:10:21.688Z,100891.20
2019-05-26T03:11:57.413Z,100886.09
2019-05-26T03:13:35.461Z,100886.16
2019-05-26T03:15:18.106Z,100883.47
2019-05-26T03:16:53.594Z,100884.37
2019-05-26T03:18:37.014Z,100880.66
2019-05-26T03:20:14.634Z,100879.52
2019-05-26T03:21:49.744Z,100880.38
2019-05-26T03:23:25.848Z,100877.97
2019-05-26T03:25:01.650Z,100881.96
2019-05-26T03:26:36.991Z,100877.97
2019-05-26T03:28:13.550Z,100876.73
2019-05-26T03:29:48.751Z,100881.19
2019-05-26T03:31:26.356Z,100881.22
2019-05-26T03:33:01.599Z,100879.36
2019-05-26T03:34:39.333Z,100877.36
2019-05-26T03:36:14.550Z,100874.17
2019-05-26T03:37:49.212Z,100870.63
2019-05-26T03:39:42.600Z,100870.63
2019-05-26T03:41:00.762Z,100871.02
2019-05-26T03:42:36.089Z,100866.98
2019-05-26T03:44:11.670Z,100865.36
2019-05-26T03:46:18.315Z,100863.84
2019-05-26T03:47:59.116Z,100863.33
2019-05-26T03:49:35.434Z,100855.66
2019-05-26T03:51:10.659Z,100859.61
2019-05-26T03:52:45.382Z,100856.42
2019-05-26T03:54:32.029Z,100856.42
2019-05-26T03:56:07.308Z,100855.41
2019-05-26T03:57:41.949Z,100859.17
2019-05-26T03:59:18.272Z,100848.46
2019-05-26T04:00:52.939Z,100848.46
2019-05-26T04:02:28.222Z,100863.17
2019-05-26T04:04:06.134Z,100863.17
2019-05-26T04:05:41.376Z,100855.45
2019-05-26T04:07:16.043Z,100856.78
2019-05-26T04:08:51.296Z,100853.31
2019-05-26T04:10:30.306Z,100859.46
2019-05-26T04:12:05.793Z,100850.41
2019-05-26T04:13:48.992Z,100850.41
2019-05-26T04:15:24.235Z,100841.08
2019-05-26T04:16:59.829Z,100841.08
2019-05-26T04:18:35.146Z,100841.36
2019-05-26T04:20:11.657Z,100842.41
2019-05-26T04:21:46.939Z,100837.37
2019-05-26T04:23:21.599Z,100838.41
2019-05-26T04:24:56.894Z,100839.49
2019-05-26T04:26:36.425Z,100844.83
2019-05-26T04:28:11.666Z,100838.40
2019-05-26T04:29:48.571Z,100838.40
2019-05-26T04:31:23.790Z,100841.56
2019-05-26T04:32:58.689Z,100841.56
2019-05-26T04:34:33.916Z,100843.19
2019-05-26T04:36:11.420Z,100835.67
2019-05-26T04:37:46.677Z,100835.67
2019-05-26T04:39:21.306Z,100834.30
2019-05-26T04:40:56.570Z,100834.30
2019-05-26T04:42:34.737Z,100839.08
2019-05-26T04:44:09.959Z,100831.64
2019-05-26T04:45:44.700Z,100834.75
2019-05-26T04:47:19.971Z,100827.07
2019-05-26T04:48:57.830Z,100830.36
2019-05-26T04:50:33.147Z,100830.36
2019-05-26T04:52:16.491Z,100837.37
2019-05-26T04:54:00.784Z,100835.91
2019-05-26T04:55:35.513Z,100839.28
2019-05-26T04:57:21.899Z,100839.28
2019-05-26T04:58:56.592Z,100831.65
2019-05-26T05:00:31.936Z,100830.90
2019-05-26T05:02:06.613Z,100834.41
2019-05-26T05:03:45.005Z,100835.59
2019-05-26T05:05:19.759Z,100832.97
2019-05-26T05:06:54.992Z,100830.83
2019-05-26T05:08:29.636Z,100829.95
2019-05-26T05:10:05.864Z,100831.63
2019-05-26T05:11:40.562Z,100829.84
2019-05-26T05:13:20.427Z,100822.58
2019-05-26T05:14:55.176Z,100825.83
2019-05-26T05:16:30.560Z,100823.92
2019-05-26T05:18:05.402Z,100826.81
2019-05-26T05:19:40.658Z,100827.41
2019-05-26T05:21:15.428Z,100829.92
2019-05-26T05:22:53.201Z,100815.56
2019-05-26T05:24:28.038Z,100826.39
2019-05-26T05:26:03.328Z,100821.19
2019-05-26T05:27:38.117Z,100820.91
2019-05-26T05:29:13.417Z,100822.45
2019-05-26T05:30:48.210Z,100820.48
2019-05-26T05:32:23.435Z,100827.48
2019-05-26T05:33:58.111Z,100818.98
2019-05-26T05:35:33.473Z,100824.50
2019-05-26T05:37:17.282Z,100822.72
2019-05-26T05:38:59.660Z,100822.98
2019-05-26T05:40:34.379Z,100823.07
2019-05-26T05:42:09.628Z,100820.20
2019-05-26T05:43:50.344Z,100820.22
2019-05-26T05:45:25.583Z,100821.59
2019-05-26T05:47:00.290Z,100815.16
2019-05-26T05:48:35.535Z,100819.23
2019-05-26T05:50:19.852Z,100819.23
2019-05-26T05:51:55.148Z,100826.61
2019-05-26T05:53:29.790Z,100819.87
2019-05-26T05:55:05.205Z,100820.61
2019-05-26T05:56:55.452Z,100822.80
2019-05-26T05:58:17.296Z,100812.39
2019-05-26T05:59:51.940Z,100817.74
2019-05-26T06:01:34.527Z,100816.69
2019-05-26T06:03:18.301Z,100818.09
2019-05-26T06:04:52.463Z,100816.07
2019-05-26T06:06:27.698Z,100814.77
2019-05-26T06:08:02.522Z,100818.91
2019-05-26T06:09:37.760Z,100816.03
2019-05-26T06:11:17.284Z,100820.12
2019-05-26T06:12:52.497Z,100814.77
2019-05-26T06:14:31.888Z,100815.11
2019-05-26T06:16:07.131Z,100816.52
2019-05-26T06:17:41.842Z,100809.84
2019-05-26T06:19:17.196Z,100814.97
2019-05-26T06:20:52.014Z,100820.08
2019-05-26T06:22:30.033Z,100815.87
2019-05-26T06:24:04.896Z,100815.03
2019-05-26T06:25:43.056Z,100809.20
2019-05-26T06:27:17.718Z,100811.36
2019-05-26T06:28:56.090Z,100807.73
2019-05-26T06:30:31.656Z,100811.52
2019-05-26T06:32:08.086Z,100818.20
2019-05-26T06:33:44.560Z,100811.92
2019-05-26T06:35:19.786Z,100813.11
2019-05-26T06:36:54.647Z,100813.19
2019-05-26T06:38:29.909Z,100812.98
2019-05-26T06:40:20.585Z,100813.68
2019-05-26T06:41:55.844Z,100813.64
2019-05-26T06:43:33.316Z,100817.64
2019-05-26T06:45:09.007Z,100814.70
2019-05-26T06:46:53.356Z,100811.47
2019-05-26T06:48:28.650Z,100805.00
2019-05-26T06:50:03.357Z,100814.04
2019-05-26T06:51:38.619Z,100813.88
2019-05-26T06:53:19.814Z,100807.46
2019-05-26T06:54:54.994Z,100810.91
2019-05-26T06:56:30.338Z,100813.44
2019-05-26T06:58:05.379Z,100810.17
2019-05-26T06:59:42.691Z,100807.36
2019-05-26T07:01:21.534Z,100809.65
2019-05-26T07:02:56.984Z,100806.44
2019-05-26T07:04:35.406Z,100808.57
2019-05-26T07:06:10.679Z,100809.67
2019-05-26T07:07:51.803Z,100806.48
2019-05-26T07:09:27.254Z,100802.33
2019-05-26T07:11:09.549Z,100798.71
2019-05-26T07:12:45.993Z,100805.98
2019-05-26T07:14:20.665Z,100805.79
2019-05-26T07:15:56.989Z,100802.89
2019-05-26T07:17:31.639Z,100798.36
2019-05-26T07:19:06.953Z,100804.97
2019-05-26T07:20:41.829Z,100803.28
2019-05-26T07:22:17.123Z,100803.86
2019-05-26T07:23:56.155Z,100796.72
2019-05-26T07:25:31.404Z,100804.43
2019-05-26T07:27:07.293Z,100804.14
2019-05-26T07:28:42.629Z,100810.14
2019-05-26T07:30:23.436Z,100804.70
2019-05-26T07:31:57.439Z,100803.77
2019-05-26T07:33:32.094Z,100802.36
2019-05-26T07:35:07.933Z,100804.80
2019-05-26T07:36:42.644Z,100804.45
2019-05-26T07:38:17.917Z,100797.67
2019-05-26T07:39:52.565Z,100799.20
2019-05-26T07:41:33.923Z,100796.70
2019-05-26T07:43:09.568Z,100799.41
2019-05-26T07:44:46.544Z,100795.88
2019-05-26T07:46:21.105Z,100797.66
2019-05-26T07:47:56.371Z,100797.13
2019-05-26T07:49:31.031Z,100786.83
2019-05-26T07:51:06.376Z,100787.88
2019-05-26T07:52:41.002Z,100787.81
2019-05-26T07:54:25.260Z,100784.38
2019-05-26T07:55:52.568Z,100791.75
2019-05-26T07:57:27.832Z,100796.20
2019-05-26T07:59:11.141Z,100798.92
2019-05-26T08:00:46.425Z,100802.97
2019-05-26T08:02:21.146Z,100790.78
2019-05-26T08:03:56.390Z,100800.75
2019-05-26T08:05:31.035Z,100802.66
2019-05-26T08:07:06.376Z,100803.97
2019-05-26T08:08:43.195Z,100803.70
2019-05-26T08:10:18.797Z,100803.14
2019-05-26T08:11:53.461Z,100805.25
2019-05-26T08:13:29.114Z,100802.05
2019-05-26T08:15:03.841Z,100799.43
2019-05-26T08:16:39.097Z,100798.63
2019-05-26T08:18:13.846Z,100792.08
2019-05-26T08:19:49.082Z,100795.00
2019-05-26T08:21:23.753Z,100784.39
2019-05-26T08:23:00.277Z,100775.52
2019-05-26T08:24:34.904Z,100788.84
2019-05-26T08:26:10.302Z,100781.49
2019-05-26T08:27:44.967Z,100776.11
2019-05-26T08:29:20.180Z,100777.62
2019-05-26T08:30:54.826Z,100778.79
2019-05-26T08:32:30.179Z,100770.19
2019-05-26T08:34:05.005Z,100777.13
2019-05-26T08:35:48.270Z,100765.08
2019-05-26T08:37:22.980Z,100764.20
2019-05-26T08:38:58.287Z,100767.62
2019-05-26T08:40:34.092Z,100759.81
2019-05-26T08:42:09.321Z,100759.90
2019-05-26T08:43:47.122Z,100761.16
2019-05-26T08:45:23.723Z,100759.63
2019-05-26T08:47:01.508Z,100755.30
2019-05-26T08:48:36.770Z,100753.11
2019-05-26T08:50:18.652Z,100755.73
2019-05-26T08:51:54.000Z,100752.61
2019-05-26T08:53:31.510Z,100751.50
2019-05-26T08:55:07.061Z,100745.25
2019-05-26T08:56:41.746Z,100755.08
2019-05-26T08:58:16.987Z,100746.22
2019-05-26T08:59:51.779Z,100747.66
2019-05-26T09:01:28.674Z,100745.08
2019-05-26T09:03:03.569Z,100745.25
2019-05-26T09:04:38.988Z,100752.27
2019-05-26T09:06:13.730Z,100749.58
2019-05-26T09:07:48.940Z,100747.41
2019-05-26T09:09:23.586Z,100750.56
2019-05-26T09:10:58.833Z,100750.46
2019-05-26T09:12:43.360Z,100747.71
2019-05-26T09:14:18.863Z,100745.06
2019-05-26T09:16:00.793Z,100751.42
2019-05-26T09:17:36.079Z,100743.40
2019-05-26T09:19:10.730Z,100729.63
2019-05-26T09:20:45.978Z,100741.22
2019-05-26T09:22:22.707Z,100742.27
2019-05-26T09:23:57.962Z,100740.65
2019-05-26T09:25:32.762Z,100738.33
2019-05-26T09:27:08.076Z,100739.55
2019-05-26T09:28:45.953Z,100731.13
2019-05-26T09:30:21.453Z,100734.34
2019-05-26T09:31:56.109Z,100739.77
2019-05-26T09:33:31.346Z,100735.91
2019-05-26T09:35:06.490Z,100737.11
2019-05-26T09:36:41.838Z,100735.60
2019-05-26T09:38:16.479Z,100732.31
2019-05-26T09:39:51.723Z,100735.53
2019-05-26T09:41:26.411Z,100729.27
2019-05-26T09:43:15.001Z,100727.64
2019-05-26T09:44:38.105Z,100726.52
2019-05-26T09:46:13.337Z,100722.91
2019-05-26T09:47:57.706Z,100725.77
2019-05-26T09:49:32.972Z,100727.34
2019-05-26T09:51:07.860Z,100726.59
2019-05-26T09:52:43.184Z,100731.99
2019-05-26T09:54:17.864Z,100737.34
2019-05-26T09:55:53.102Z,100731.50
2019-05-26T09:57:27.746Z,100733.11
2019-05-26T09:59:04.137Z,100735.23
2019-05-26T10:00:38.784Z,100723.48
2019-05-26T10:02:14.016Z,100727.05
2019-05-26T10:03:48.746Z,100728.17
2019-05-26T10:05:24.087Z,100729.73
2019-05-26T10:06:58.730Z,100727.59
2019-05-26T10:08:33.954Z,100726.48
2019-05-26T10:10:09.213Z,100715.80
2019-05-26T10:11:44.445Z,100725.73
2019-05-26T10:13:31.427Z,100726.28
2019-05-26T10:15:01.040Z,100723.36
2019-05-26T10:16:36.043Z,100723.34
2019-05-26T10:18:11.258Z,100725.11
2019-05-26T10:19:45.983Z,100713.91
2019-05-26T10:21:21.286Z,100716.52
2019-05-26T10:22:56.422Z,100714.80
2019-05-26T10:24:31.754Z,100720.83
2019-05-26T10:26:06.424Z,100716.89
2019-05-26T10:27:41.869Z,100711.43
2019-05-26T10:29:16.711Z,100710.92
2019-05-26T10:30:57.195Z,100708.21
2019-05-26T10:32:32.510Z,100707.91
2019-05-26T10:34:07.327Z,100709.38
2019-05-26T10:35:46.529Z,100704.64
2019-05-26T10:37:21.259Z,100696.98
2019-05-26T10:38:58.966Z,100698.87
2019-05-26T10:40:33.643Z,100697.87
2019-05-26T10:42:08.929Z,100695.34
2019-05-26T10:43:47.132Z,100694.79
2019-05-26T10:45:20.961Z,100695.56
2019-05-26T10:46:55.831Z,100692.44
2019-05-26T10:48:31.117Z,100688.84
2019-05-26T10:50:07.477Z,100681.28
2019-05-26T10:51:42.710Z,100684.52
2019-05-26T10:53:23.460Z,100686.61
2019-05-26T10:54:58.704Z,100683.25
2019-05-26T10:56:33.433Z,100689.94
2019-05-26T10:58:08.680Z,100686.25
2019-05-26T10:59:43.658Z,100683.98
2019-05-26T11:01:18.964Z,100686.28
2019-05-26T11:02:54.677Z,100676.30
2019-05-26T11:04:29.906Z,100684.00
2019-05-26T11:06:05.759Z,100676.54
2019-05-26T11:07:44.731Z,100680.00
2019-05-26T11:09:19.449Z,100679.08
2019-05-26T11:10:54.695Z,100677.41
2019-05-26T11:12:29.373Z,100674.50
2019-05-26T11:14:06.109Z,100675.19
2019-05-26T11:15:50.572Z,100676.48
2019-05-26T11:17:31.228Z,100674.59
2019-05-26T11:19:06.020Z,100669.65
2019-05-26T11:20:41.385Z,100664.14
2019-05-26T11:22:16.685Z,100663.31
2019-05-26T11:23:51.940Z,100670.39
2019-05-26T11:25:36.478Z,100656.54
2019-05-26T11:27:13.315Z,100662.08
2019-05-26T11:28:48.171Z,100655.05
2019-05-26T11:30:23.736Z,100653.40
2019-05-26T11:31:58.382Z,100661.85
2019-05-26T11:33:38.306Z,100655.84
2019-05-26T11:35:13.955Z,100641.34
2019-05-26T11:36:49.781Z,100649.59
2019-05-26T11:38:24.497Z,100638.83
2019-05-26T11:39:59.761Z,100647.23
2019-05-26T11:41:34.433Z,100646.00
2019-05-26T11:43:16.922Z,100635.64
2019-05-26T11:44:48.813Z,100637.97
2019-05-26T11:46:24.001Z,100627.39
2019-05-26T11:47:58.798Z,100639.96
2019-05-26T11:49:34.066Z,100628.13
2019-05-26T11:51:08.715Z,100634.56
2019-05-26T11:52:44.009Z,100625.62
2019-05-26T11:54:18.957Z,100625.22
2019-05-26T11:55:54.395Z,100621.30
2019-05-26T11:57:29.065Z,100629.77
2019-05-26T11:59:07.276Z,100624.77
2019-05-26T12:00:42.796Z,100621.81
2019-05-26T12:02:18.011Z,100622.58
2019-05-26T12:03:53.713Z,100624.21
2019-05-26T12:05:30.575Z,100618.30
2019-05-26T12:07:05.556Z,100623.29
2019-05-26T12:08:40.811Z,100614.55
2019-05-26T12:10:16.873Z,100621.39
2019-05-26T12:11:52.136Z,100612.44
2019-05-26T12:13:27.752Z,100613.14
2019-05-26T12:15:03.019Z,100609.77
2019-05-26T12:16:39.269Z,100606.69
2019-05-26T12:18:20.196Z,100609.27
2019-05-26T12:19:55.601Z,100604.69
2019-05-26T12:21:30.264Z,100602.10
2019-05-26T12:23:05.587Z,100601.08
2019-05-26T12:24:40.983Z,100599.37
2019-05-26T12:26:19.589Z,100600.91
2019-05-26T12:27:54.360Z,100599.84
2019-05-26T12:29:29.757Z,100598.95
2019-05-26T12:31:11.482Z,100598.11
2019-05-26T12:32:46.842Z,100595.34
2019-05-26T12:34:21.566Z,100602.77
2019-05-26T12:35:56.796Z,100598.34
2019-05-26T12:37:31.564Z,100592.84
2019-05-26T12:39:10.716Z,100589.28
2019-05-26T12:40:45.437Z,100592.03
2019-05-26T12:42:20.942Z,100595.95
2019-05-26T12:43:55.601Z,100589.13
2019-05-26T12:45:45.653Z,100591.92
2019-05-26T12:47:20.993Z,100591.08
2019-05-26T12:49:00.270Z,100586.02
2019-05-26T12:50:35.557Z,100584.73
2019-05-26T12:52:13.252Z,100574.47
2019-05-26T12:53:53.418Z,100578.98
2019-05-26T12:55:28.108Z,100589.81
2019-05-26T12:57:03.352Z,100579.93
2019-05-26T12:58:38.013Z,100580.10
2019-05-26T13:00:15.135Z,100577.41
2019-05-26T13:01:57.532Z,100571.09
2019-05-26T13:03:32.790Z,100574.84
2019-05-26T13:05:07.800Z,100575.77
2019-05-26T13:06:43.049Z,100573.61
2019-05-26T13:08:17.703Z,100569.99
2019-05-26T13:09:59.525Z,100571.80
2019-05-26T13:11:34.777Z,100569.05
2019-05-26T13:13:09.442Z,100570.20
2019-05-26T13:15:04.742Z,100566.73
2019-05-26T13:16:21.021Z,100567.59
2019-05-26T13:17:59.053Z,100572.68
2019-05-26T13:19:34.863Z,100570.83
2019-05-26T13:21:11.749Z,100569.83
2019-05-26T13:22:47.483Z,100571.53
2019-05-26T13:24:22.748Z,100571.82
2019-05-26T13:25:57.375Z,100571.33
2019-05-26T13:27:33.752Z,100568.72
2019-05-26T13:29:08.469Z,100567.81
2019-05-26T13:30:43.687Z,100569.91
2019-05-26T13:32:18.654Z,100572.15
2019-05-26T13:33:53.963Z,100563.55
2019-05-26T13:35:29.017Z,100559.43
2019-05-26T13:37:04.591Z,100557.75
2019-05-26T13:38:48.668Z,100562.81
2019-05-26T13:40:24.221Z,100556.63
2019-05-26T13:41:59.206Z,100560.39
2019-05-26T13:43:36.574Z,100562.13
2019-05-26T13:45:22.373Z,100556.39
2019-05-26T13:46:51.387Z,100549.28
2019-05-26T13:48:33.770Z,100555.10
2019-05-26T13:50:08.871Z,100548.92
2019-05-26T13:51:44.083Z,100545.86
2019-05-26T13:53:26.306Z,100544.64
2019-05-26T13:55:03.244Z,100546.98
2019-05-26T13:56:38.223Z,100540.55
2019-05-26T13:58:13.448Z,100541.81
2019-05-26T13:59:48.363Z,100541.81
2019-05-26T14:01:32.748Z,100529.66
2019-05-26T14:03:13.159Z,100531.75
2019-05-26T14:04:48.182Z,100532.95
2019-05-26T14:06:23.406Z,100526.92
2019-05-26T14:07:58.050Z,100523.09
2019-05-26T14:09:34.959Z,100519.99
2019-05-26T14:11:21.787Z,100513.86
2019-05-26T14:12:57.074Z,100521.48
2019-05-26T14:14:31.799Z,100531.99
2019-05-26T14:16:18.547Z,100519.86
2019-05-26T14:17:59.897Z,100517.66
2019-05-26T14:19:35.780Z,100510.44
2019-05-26T14:21:10.471Z,100513.59
2019-05-26T14:22:46.265Z,100507.72
2019-05-26T14:24:20.941Z,100519.75
2019-05-26T14:26:05.077Z,100504.77
2019-05-26T14:27:40.300Z,100507.27
2019-05-26T14:29:15.417Z,100506.89
2019-05-26T14:30:54.169Z,100513.44
2019-05-26T14:32:31.461Z,100507.45
2019-05-26T14:34:06.757Z,100499.46
2019-05-26T14:35:41.399Z,100501.48
2019-05-26T14:37:16.750Z,100493.45
2019-05-26T14:38:55.439Z,100498.70
2019-05-26T14:40:30.655Z,100498.04
2019-05-26T14:42:05.420Z,100495.30
2019-05-26T14:43:40.630Z,100492.14
2019-05-26T14:45:15.567Z,100492.84
2019-05-26T14:46:53.706Z,100490.39
2019-05-26T14:48:28.348Z,100489.02
2019-05-26T14:50:03.766Z,100488.77
2019-05-26T14:51:40.092Z,100489.54
2019-05-26T14:53:15.536Z,100481.45
2019-05-26T14:54:53.408Z,100485.30
2019-05-26T14:56:28.645Z,100488.80
2019-05-26T14:58:15.233Z,100485.61
2019-05-26T14:59:51.906Z,100484.42
2019-05-26T15:01:27.116Z,100482.52
2019-05-26T15:03:01.744Z,100472.51
2019-05-26T15:04:39.896Z,100482.62
2019-05-26T15:06:14.764Z,100474.27
2019-05-26T15:07:54.134Z,100478.19
2019-05-26T15:09:33.715Z,100470.03
2019-05-26T15:11:08.936Z,100465.72
2019-05-26T15:12:43.676Z,100466.20
2019-05-26T15:14:19.882Z,100462.71
2019-05-26T15:16:08.771Z,100461.63
2019-05-26T15:17:36.239Z,100462.62
2019-05-26T15:19:11.440Z,100459.71
2019-05-26T15:20:46.163Z,100458.81
2019-05-26T15:22:30.858Z,100466.36
2019-05-26T15:24:03.197Z,100451.92
2019-05-26T15:25:38.407Z,100466.03
2019-05-26T15:27:13.074Z,100455.48
2019-05-26T15:28:48.280Z,100453.84
2019-05-26T15:30:23.153Z,100447.25
2019-05-26T15:31:58.379Z,100456.98
2019-05-26T15:33:35.760Z,100452.98
2019-05-26T15:35:12.117Z,100447.52
2019-05-26T15:36:46.766Z,100448.54
2019-05-26T15:38:21.987Z,100452.08
2019-05-26T15:39:56.608Z,100447.47
2019-05-26T15:41:34.925Z,100445.70
2019-05-26T15:43:09.694Z,100438.52
2019-05-26T15:44:50.099Z,100444.11
2019-05-26T15:46:30.644Z,100448.52
2019-05-26T15:48:05.547Z,100442.42
2019-05-26T15:49:40.779Z,100441.97
2019-05-26T15:51:26.826Z,100438.91
2019-05-26T15:53:01.446Z,100438.33
2019-05-26T15:54:36.678Z,100436.27
2019-05-26T15:56:11.321Z,100422.68
2019-05-26T15:57:46.562Z,100429.49
2019-05-26T15:59:32.000Z,100424.25
2019-05-26T16:01:10.488Z,100417.30
2019-05-26T16:02:46.806Z,100414.47
2019-05-26T16:04:22.284Z,100418.12
2019-05-26T16:05:56.937Z,100416.47
2019-05-26T16:07:33.769Z,100420.83
2019-05-26T16:09:16.808Z,100418.10
2019-05-26T16:10:52.083Z,100419.70
2019-05-26T16:12:26.750Z,100416.31
2019-05-26T16:14:04.671Z,100419.09
2019-05-26T16:15:40.052Z,100412.10
2019-05-26T16:17:18.779Z,100410.17
2019-05-26T16:18:54.887Z,100406.45
2019-05-26T16:20:31.981Z,100408.30
2019-05-26T16:22:10.165Z,100407.58
2019-05-26T16:23:45.797Z,100399.22
2019-05-26T16:25:22.577Z,100409.15
2019-05-26T16:27:16.194Z,100403.84
2019-05-26T16:28:42.184Z,100399.17
2019-05-26T16:30:17.927Z,100399.36
2019-05-26T16:31:53.042Z,100398.09
2019-05-26T16:33:30.123Z,100403.99
2019-05-26T16:35:06.356Z,100405.05
2019-05-26T16:36:41.793Z,100399.00
2019-05-26T16:38:16.754Z,100396.77
2019-05-26T16:39:55.675Z,100396.84
2019-05-26T16:41:31.397Z,100394.00
2019-05-26T16:43:06.854Z,100392.81
2019-05-26T16:44:41.964Z,100385.30
2019-05-26T16:46:17.486Z,100388.78
2019-05-26T16:47:53.506Z,100391.83
2019-05-26T16:49:28.997Z,100390.43
2019-05-26T16:51:03.975Z,100381.92
2019-05-26T16:52:41.263Z,100380.37
2019-05-26T16:54:18.366Z,100384.06
2019-05-26T16:55:58.145Z,100377.51
2019-05-26T16:57:32.922Z,100374.02
2019-05-26T16:59:09.206Z,100367.10
2019-05-26T17:00:44.242Z,100366.78
2019-05-26T17:02:19.911Z,100366.02
2019-05-26T17:04:03.525Z,100364.51
2019-05-26T17:05:40.004Z,100361.95
2019-05-26T17:07:15.205Z,100363.49
2019-05-26T17:08:50.761Z,100364.02
2019-05-26T17:10:25.635Z,100365.19
2019-05-26T17:12:01.057Z,100360.59
2019-05-26T17:13:36.075Z,100357.66
2019-05-26T17:15:13.288Z,100362.81
2019-05-26T17:16:49.851Z,100364.53
2019-05-26T17:20:21.624Z,100362.80
2019-05-26T17:21:57.121Z,100358.98
2019-05-26T17:23:32.862Z,100359.58
2019-05-26T17:25:11.144Z,100358.66
2019-05-26T17:26:45.839Z,100362.52
2019-05-26T17:28:21.066Z,100359.64
2019-05-26T17:29:55.699Z,100360.31
2019-05-26T17:31:31.419Z,100359.69
2019-05-26T17:33:07.462Z,100359.27
2019-05-26T17:34:42.844Z,100353.77
2019-05-26T17:36:26.600Z,100355.23
2019-05-26T17:38:01.928Z,100361.44
2019-05-26T17:39:37.841Z,100362.79
2019-05-26T17:41:13.296Z,100361.75
2019-05-26T17:42:49.546Z,100353.16
2019-05-26T17:44:24.988Z,100354.87
2019-05-26T17:45:59.739Z,100348.94
2019-05-26T17:47:39.011Z,100356.36
2019-05-26T17:49:13.939Z,100345.13
2019-05-26T17:50:49.199Z,100350.08
2019-05-26T17:52:26.433Z,100353.98
2019-05-26T17:54:01.640Z,100357.46
2019-05-26T17:55:36.285Z,100359.47
2019-05-26T17:57:11.515Z,100353.57
2019-05-26T17:58:46.162Z,100354.14
2019-05-26T18:00:21.463Z,100358.42
2019-05-26T18:01:56.654Z,100359.55
2019-05-26T18:03:31.935Z,100355.06
2019-05-26T18:05:06.781Z,100352.06
2019-05-26T18:06:43.072Z,100351.23
2019-05-26T18:08:17.735Z,100349.88
2019-05-26T18:09:52.949Z,100341.58
2019-05-26T18:11:30.826Z,100345.17
2019-05-26T18:13:08.120Z,100339.91
2019-05-26T18:14:46.129Z,100338.42
2019-05-26T18:16:20.803Z,100342.05
2019-05-26T18:17:56.054Z,100342.27
2019-05-26T18:19:30.714Z,100343.41
2019-05-26T18:21:06.060Z,100340.05
2019-05-26T18:22:40.763Z,100339.35